Time;durP1;ratioP1;P1;durP2;ratioP2;P2;SDS_P1;SDS_P2;PMS_P1;PMS_P2;Temp;Humidity;BMP_temperature;BMP_pressure;BME280_temperature;BME280_humidity;BME280_pressure;Samples;Min_cycle;Max_cycle;Signal;HPM_P1;HPM_P2
2019/04/20 00:02:22;;;;;;;3.6;3.3;;;;;;;24.16;26.75781;1012.008;;;;
2019/04/20 00:04:52;;;;;;;3.8;3.5;;;;;;;24.17;26.75781;1011.998;;;;
2019/04/20 00:07:24;;;;;;;3.7;3.3;;;;;;;24.16;26.75684;1011.89;;;;
2019/04/20 00:09:59;;;;;;;3.6;3.3;;;;;;;24.15;26.74512;1011.896;;;;
2019/04/20 00:12:33;;;;;;;3.5;3.2;;;;;;;24.15;26.74512;1011.938;;;;
2019/04/20 00:14:59;;;;;;;3.5;3.2;;;;;;;24.14;26.75586;1011.817;;;;
2019/04/20 00:17:25;;;;;;;3.5;3.1;;;;;;;24.14;26.74512;1011.862;;;;
2019/04/20 00:19:54;;;;;;;3.8;3.1;;;;;;;24.12;26.7666;1011.835;;;;
2019/04/20 00:22:45;;;;;;;3.6;3.3;;;;;;;24.12;26.75488;1011.82;;;;
2019/04/20 00:25:22;;;;;;;3.6;3.3;;;;;;;24.13;26.74316;1011.787;;;;
2019/04/20 00:27:25;;;;;;;3.5;3.2;;;;;;;24.12;26.74316;1011.765;;;;
2019/04/20 00:29:52;;;;;;;3.7;3.4;;;;;;;24.11;26.75391;1011.791;;;;
2019/04/20 00:32:24;;;;;;;3.4;3.1;;;;;;;24.1;26.76563;1011.765;;;;
2019/04/20 00:34:56;;;;;;;3.6;3.2;;;;;;;24.12;26.73145;1011.807;;;;
2019/04/20 00:37:27;;;;;;;3.5;3.2;;;;;;;24.12;26.70801;1011.893;;;;
2019/04/20 00:39:56;;;;;;;3.9;3.3;;;;;;;24.08;26.76465;1011.833;;;;
2019/04/20 00:42:31;;;;;;;3.5;3.2;;;;;;;24.1;26.71777;1011.775;;;;
2019/04/20 00:44:59;;;;;;;3.4;3.1;;;;;;;24.08;26.75195;1011.756;;;;
2019/04/20 00:47:28;;;;;;;3.5;3.2;;;;;;;24.08;26.75293;1011.75;;;;
2019/04/20 00:50:01;;;;;;;3.7;3.4;;;;;;;24.1;26.71777;1011.788;;;;
2019/04/20 00:52:31;;;;;;;3.6;3.3;;;;;;;24.08;26.74023;1011.705;;;;
2019/04/20 00:55:00;;;;;;;3.8;3.4;;;;;;;24.09;26.72949;1011.721;;;;
2019/04/20 00:57:33;;;;;;;4.1;3.5;;;;;;;24.07;26.75195;1011.808;;;;
2019/04/20 01:00:03;;;;;;;3.7;3.4;;;;;;;24.08;26.74023;1011.719;;;;
2019/04/20 01:02:32;;;;;;;4;3.2;;;;;;;24.07;26.75195;1011.679;;;;
2019/04/20 01:05:08;;;;;;;4.5;3.4;;;;;;;24.06;26.75195;1011.681;;;;
2019/04/20 01:07:54;;;;;;;3.7;3.1;;;;;;;24.05;26.7627;1011.692;;;;
2019/04/20 01:10:09;;;;;;;3.8;3.3;;;;;;;24.06;26.7627;1011.686;;;;
2019/04/20 01:12:39;;;;;;;4.4;3.1;;;;;;;24.04;26.76172;1011.676;;;;
2019/04/20 01:15:10;;;;;;;3.8;3.4;;;;;;;24.04;26.77344;1011.648;;;;
2019/04/20 01:17:39;;;;;;;3.5;3.2;;;;;;;24.04;26.76172;1011.689;;;;
2019/04/20 01:20:11;;;;;;;3.8;3.3;;;;;;;24.06;26.73926;1011.669;;;;
2019/04/20 01:22:40;;;;;;;3.6;3.3;;;;;;;24.04;26.75;1011.668;;;;
2019/04/20 01:25:10;;;;;;;3.5;3.2;;;;;;;24.03;26.75;1011.757;;;;
2019/04/20 01:27:42;;;;;;;3.6;3.3;;;;;;;24.03;26.76172;1011.728;;;;
2019/04/20 01:30:13;;;;;;;3.9;3.5;;;;;;;24.02;26.77246;1011.721;;;;
2019/04/20 01:32:43;;;;;;;3.5;3.2;;;;;;;24.03;26.76074;1011.698;;;;
2019/04/20 01:35:14;;;;;;;3.3;3;;;;;;;24.01;26.7959;1011.701;;;;
2019/04/20 01:37:44;;;;;;;3.4;3;;;;;;;24.01;26.7959;1011.742;;;;
2019/04/20 01:40:23;;;;;;;3.9;3;;;;;;;24.01;26.7959;1011.769;;;;
2019/04/20 01:42:56;;;;;;;3.4;3.1;;;;;;;24;26.80664;1011.804;;;;
2019/04/20 01:45:27;;;;;;;3.5;3.2;;;;;;;24;26.81934;1011.794;;;;
2019/04/20 01:47:57;;;;;;;3.3;3;;;;;;;23.99;26.81738;1011.81;;;;
2019/04/20 01:50:29;;;;;;;3.9;3.5;;;;;;;23.98;26.85254;1011.813;;;;
2019/04/20 01:52:58;;;;;;;4.1;3.6;;;;;;;23.97;26.86426;1011.842;;;;
2019/04/20 01:55:30;;;;;;;3.8;3.4;;;;;;;23.96;26.86426;1011.802;;;;
2019/04/20 01:58:05;;;;;;;3.4;3.1;;;;;;;23.96;26.87598;1011.911;;;;
2019/04/20 02:05:29;;;;;;;4;3.4;;;;;;;23.95;26.92188;1011.993;;;;
2019/04/20 02:07:58;;;;;;;3.6;3.2;;;;;;;23.94;26.92188;1011.879;;;;
2019/04/20 02:10:31;;;;;;;4.7;3.5;;;;;;;23.94;26.94531;1011.949;;;;
2019/04/20 02:12:59;;;;;;;3.8;3.4;;;;;;;23.93;26.94434;1011.919;;;;
2019/04/20 02:15:32;;;;;;;3.3;3;;;;;;;23.91;26.95508;1011.912;;;;
2019/04/20 02:18:00;;;;;;;3.2;2.9;;;;;;;23.91;26.95508;1011.927;;;;
2019/04/20 02:20:30;;;;;;;3.6;3.3;;;;;;;23.91;26.95508;1011.99;;;;
2019/04/20 02:23:01;;;;;;;3.5;3.2;;;;;;;23.9;26.9668;1011.933;;;;
2019/04/20 02:25:32;;;;;;;3.3;3;;;;;;;23.9;26.95508;1011.933;;;;
2019/04/20 02:28:03;;;;;;;3.5;3.2;;;;;;;23.89;26.9541;1011.99;;;;
2019/04/20 02:30:32;;;;;;;3.5;3.2;;;;;;;23.89;26.94238;1012.017;;;;
2019/04/20 02:33:05;;;;;;;3.2;2.9;;;;;;;23.89;26.93066;1011.977;;;;
2019/04/20 02:36:19;;;;;;;3.8;3.4;;;;;;;23.88;26.94141;1011.961;;;;
2019/04/20 02:38:09;;;;;;;4.1;3.3;;;;;;;23.88;26.94141;1011.979;;;;
2019/04/20 02:40:32;;;;;;;4.7;3.5;;;;;;;23.87;26.95215;1012.013;;;;
2019/04/20 02:43:03;;;;;;;3.2;2.9;;;;;;;23.87;26.95313;1011.998;;;;
2019/04/20 02:45:33;;;;;;;3.6;3.3;;;;;;;23.87;26.95215;1011.972;;;;
2019/04/20 02:48:17;;;;;;;3.4;3;;;;;;;23.86;26.96387;1011.987;;;;
2019/04/20 02:50:51;;;;;;;3.4;3.1;;;;;;;23.85;26.96387;1011.957;;;;
2019/04/20 02:53:20;;;;;;;3.5;3.2;;;;;;;23.85;26.96387;1011.989;;;;
2019/04/20 02:55:52;;;;;;;3.5;3.2;;;;;;;23.84;26.99805;1011.933;;;;
2019/04/20 02:58:27;;;;;;;3.7;3.2;;;;;;;23.83;26.96289;1012.007;;;;
2019/04/20 03:01:35;;;;;;;3.3;3;;;;;;;23.83;26.93848;1011.965;;;;
2019/04/20 03:04:15;;;;;;;3.8;3.3;;;;;;;23.82;26.9375;1011.894;;;;
2019/04/20 03:06:44;;;;;;;3.4;3.1;;;;;;;23.81;26.94922;1011.951;;;;
2019/04/20 03:09:14;;;;;;;3.5;3.2;;;;;;;23.81;26.91309;1011.965;;;;
2019/04/20 03:11:46;;;;;;;3.5;3.2;;;;;;;23.82;26.92578;1011.876;;;;
2019/04/20 03:14:20;;;;;;;3.5;3.2;;;;;;;23.81;26.94922;1012.011;;;;
2019/04/20 03:16:46;;;;;;;3.6;3.3;;;;;;;23.8;26.94824;1011.954;;;;
2019/04/20 03:19:20;;;;;;;3.6;3.3;;;;;;;23.78;26.94727;1011.892;;;;
2019/04/20 03:21:47;;;;;;;3.7;3.3;;;;;;;23.78;26.95898;1011.88;;;;
2019/04/20 03:24:17;;;;;;;3.5;3.2;;;;;;;23.78;26.95898;1011.957;;;;
2019/04/20 03:26:52;;;;;;;3.5;3.1;;;;;;;23.77;26.98145;1011.932;;;;
2019/04/20 03:29:33;;;;;;;3.5;3.2;;;;;;;23.77;26.95898;1011.913;;;;
2019/04/20 03:31:53;;;;;;;3.4;3.1;;;;;;;23.76;26.98145;1011.943;;;;
2019/04/20 03:34:19;;;;;;;3.6;3.3;;;;;;;23.75;26.99316;1011.894;;;;
2019/04/20 03:36:47;;;;;;;3.5;3;;;;;;;23.74;27.00391;1011.964;;;;
2019/04/20 03:39:18;;;;;;;3.3;3;;;;;;;23.74;27.00391;1011.933;;;;
2019/04/20 03:41:49;;;;;;;3.3;3;;;;;;;23.73;27.02734;1011.981;;;;
2019/04/20 03:44:19;;;;;;;3.2;3;;;;;;;23.73;27.01563;1012.049;;;;
2019/04/20 03:46:51;;;;;;;3.5;3.1;;;;;;;23.72;27.02637;1011.988;;;;
2019/04/20 03:49:20;;;;;;;3.5;3.2;;;;;;;23.71;27.03809;1012.035;;;;
2019/04/20 03:52:08;;;;;;;3.4;3.1;;;;;;;23.72;27.02637;1012.047;;;;
2019/04/20 03:54:42;;;;;;;3.6;3.3;;;;;;;23.71;27.02539;1011.976;;;;
2019/04/20 03:57:03;;;;;;;3.5;3.2;;;;;;;23.71;27.02539;1012.054;;;;
2019/04/20 03:59:31;;;;;;;3.6;3.3;;;;;;;23.7;27.02539;1012.042;;;;
2019/04/20 04:02:45;;;;;;;3.8;3.1;;;;;;;23.7;27.01367;1012.037;;;;
2019/04/20 04:05:40;;;;;;;3.5;3.2;;;;;;;23.69;27.00098;1012.061;;;;
2019/04/20 04:07:38;;;;;;;4.5;3.2;;;;;;;23.68;27.00098;1011.954;;;;
2019/04/20 04:10:08;;;;;;;3.8;3.2;;;;;;;23.68;26.98828;1011.968;;;;
2019/04/20 04:12:38;;;;;;;3.6;3.3;;;;;;;23.68;26.96484;1011.995;;;;
2019/04/20 04:15:09;;;;;;;3.3;3;;;;;;;23.69;26.94141;1012.008;;;;
2019/04/20 04:17:39;;;;;;;3.6;3.1;;;;;;;23.69;26.91797;1011.93;;;;
2019/04/20 04:20:11;;;;;;;3.7;3.4;;;;;;;23.68;26.90625;1011.941;;;;
2019/04/20 04:22:41;;;;;;;3.5;3.2;;;;;;;23.68;26.89453;1011.982;;;;
2019/04/20 04:25:10;;;;;;;3.3;3;;;;;;;23.68;26.88184;1011.95;;;;
2019/04/20 04:27:41;;;;;;;3.3;3;;;;;;;23.69;26.84766;1011.957;;;;
2019/04/20 04:30:12;;;;;;;3.5;3.2;;;;;;;23.69;26.83496;1011.994;;;;
2019/04/20 04:32:42;;;;;;;3.4;3.1;;;;;;;23.68;26.83496;1011.972;;;;
2019/04/20 04:35:13;;;;;;;3.7;3.4;;;;;;;23.69;26.81152;1012.057;;;;
2019/04/20 04:37:44;;;;;;;3.3;3;;;;;;;23.69;26.78809;1012.075;;;;
2019/04/20 04:40:16;;;;;;;3.1;2.9;;;;;;;23.69;26.78809;1012.102;;;;
2019/04/20 04:42:47;;;;;;;3.4;3.1;;;;;;;23.7;26.77734;1012.11;;;;
2019/04/20 04:45:16;;;;;;;2.9;2.7;;;;;;;23.71;26.74219;1012.121;;;;
2019/04/20 04:47:46;;;;;;;4.1;3.3;;;;;;;23.71;26.73047;1012.126;;;;
2019/04/20 04:50:18;;;;;;;3.5;3.2;;;;;;;23.72;26.68359;1012.143;;;;
2019/04/20 04:52:50;;;;;;;3.2;2.9;;;;;;;23.73;26.66016;1012.223;;;;
2019/04/20 04:55:19;;;;;;;3.5;3;;;;;;;23.74;26.64941;1012.189;;;;
2019/04/20 04:57:49;;;;;;;3.7;3.2;;;;;;;23.74;26.61426;1012.183;;;;
2019/04/20 05:00:30;;;;;;;3.6;3.1;;;;;;;23.75;26.59082;1012.215;;;;
2019/04/20 05:03:00;;;;;;;3.7;3;;;;;;;23.75;26.5791;1012.26;;;;
2019/04/20 05:05:45;;;;;;;4.5;3;;;;;;;23.76;26.54395;1012.29;;;;
2019/04/20 05:08:16;;;;;;;3.5;3.2;;;;;;;23.77;26.53223;1012.398;;;;
2019/04/20 05:10:47;;;;;;;2.9;2.7;;;;;;;23.76;26.50879;1012.312;;;;
2019/04/20 05:13:19;;;;;;;3.1;2.8;;;;;;;23.78;26.47461;1012.35;;;;
2019/04/20 05:15:51;;;;;;;3.1;2.9;;;;;;;23.79;26.4502;1012.417;;;;
2019/04/20 05:18:16;;;;;;;3.8;3.1;;;;;;;23.79;26.42773;1012.357;;;;
2019/04/20 05:20:53;;;;;;;3.3;3;;;;;;;23.79;26.42676;1012.362;;;;
2019/04/20 05:23:16;;;;;;;2.9;2.7;;;;;;;23.79;26.41504;1012.362;;;;
2019/04/20 05:26:00;;;;;;;3.8;3;;;;;;;23.8;26.38086;1012.446;;;;
2019/04/20 05:28:17;;;;;;;3.4;3;;;;;;;23.81;26.35742;1012.413;;;;
2019/04/20 05:30:48;;;;;;;3.2;2.9;;;;;;;23.81;26.33398;1012.352;;;;
2019/04/20 05:33:22;;;;;;;3.2;2.9;;;;;;;23.84;26.28809;1012.379;;;;
2019/04/20 05:35:49;;;;;;;3.2;2.9;;;;;;;23.86;26.24219;1012.361;;;;
2019/04/20 05:38:21;;;;;;;3.3;3;;;;;;;23.9;26.17383;1012.372;;;;
2019/04/20 05:40:50;;;;;;;3.2;2.9;;;;;;;23.96;26.11816;1012.324;;;;
2019/04/20 05:44:05;;;;;;;3.3;3;;;;;;;24.01;26.02637;1012.378;;;;
2019/04/20 05:45:54;;;;;;;3.5;3.2;;;;;;;24.07;25.94629;1012.324;;;;
2019/04/20 05:48:25;;;;;;;3.2;2.9;;;;;;;24.11;25.89063;1012.416;;;;
2019/04/20 05:50:56;;;;;;;3.5;3.1;;;;;;;24.15;25.82129;1012.354;;;;
2019/04/20 05:53:27;;;;;;;3.9;3.5;;;;;;;24.2;25.76563;1012.343;;;;
2019/04/20 05:55:57;;;;;;;3.8;3.2;;;;;;;24.26;25.67383;1012.451;;;;
2019/04/20 05:58:30;;;;;;;3.2;3;;;;;;;24.32;25.57031;1012.456;;;;
2019/04/20 06:00:59;;;;;;;3.3;3;;;;;;;24.38;25.50293;1012.523;;;;
2019/04/20 06:03:28;;;;;;;3.1;2.8;;;;;;;24.42;25.43457;1012.541;;;;
2019/04/20 06:05:59;;;;;;;3.3;3;;;;;;;24.49;25.36719;1012.559;;;;
2019/04/20 06:08:35;;;;;;;3.7;3.1;;;;;;;24.57;25.26465;1012.544;;;;
2019/04/20 06:11:03;;;;;;;3.3;3;;;;;;;24.63;25.17383;1012.546;;;;
2019/04/20 06:16:11;;;;;;;3.4;3.1;;;;;;;24.71;25.08301;1012.631;;;;
2019/04/20 06:18:37;;;;;;;3.6;3.3;;;;;;;24.75;25.0498;1012.594;;;;
2019/04/20 06:21:06;;;;;;;3.6;3.3;;;;;;;24.79;25.0166;1012.628;;;;
2019/04/20 06:23:41;;;;;;;3.5;3.2;;;;;;;24.84;24.9834;1012.65;;;;
2019/04/20 06:26:14;;;;;;;3.7;3.2;;;;;;;24.95;24.84766;1012.623;;;;
2019/04/20 06:28:38;;;;;;;3.7;3.4;;;;;;;25.02;24.78027;1012.563;;;;
2019/04/20 06:31:07;;;;;;;4.1;3.5;;;;;;;25.06;24.71191;1012.646;;;;
2019/04/20 06:33:41;;;;;;;4.6;3.4;;;;;;;25.11;24.66699;1012.676;;;;
2019/04/20 06:36:09;;;;;;;3.9;3.5;;;;;;;25.21;24.56543;1012.662;;;;
2019/04/20 06:38:41;;;;;;;3.5;3.2;;;;;;;25.25;24.52051;1012.663;;;;
2019/04/20 06:41:10;;;;;;;3.6;3.2;;;;;;;25.34;24.41797;1012.69;;;;
2019/04/20 06:43:42;;;;;;;3.8;3.4;;;;;;;25.35;24.41895;1012.72;;;;
2019/04/20 06:46:15;;;;;;;4.1;3.7;;;;;;;25.45;24.30566;1012.741;;;;
2019/04/20 06:48:49;;;;;;;3.8;3.3;;;;;;;25.52;24.23828;1012.712;;;;
2019/04/20 06:51:27;;;;;;;4.2;3.8;;;;;;;25.56;24.20508;1012.855;;;;
2019/04/20 06:54:06;;;;;;;4.1;3.5;;;;;;;25.6;24.14746;1012.828;;;;
2019/04/20 06:56:19;;;;;;;3.7;3.4;;;;;;;25.71;24.01074;1012.842;;;;
2019/04/20 06:58:52;;;;;;;4;3.6;;;;;;;25.74;23.97656;1012.828;;;;
2019/04/20 07:01:20;;;;;;;4.5;3.8;;;;;;;25.8;23.93262;1012.837;;;;
2019/04/20 07:03:49;;;;;;;4.1;3.7;;;;;;;25.86;23.90039;1012.88;;;;
2019/04/20 07:06:18;;;;;;;3.6;3.3;;;;;;;25.94;23.78516;1012.863;;;;
2019/04/20 07:08:49;;;;;;;4.4;3.8;;;;;;;26.3;23.38867;1012.87;;;;
2019/04/20 07:11:32;;;;;;;4.5;3.9;;;;;;;27.3;22.10449;1012.784;;;;
2019/04/20 07:14:03;;;;;;;4.6;3.9;;;;;;;26.67;22.82422;1012.812;;;;
2019/04/20 07:16:41;;;;;;;4.3;3.9;;;;;;;26.71;22.83789;1012.872;;;;
2019/04/20 07:19:14;;;;;;;4.4;4;;;;;;;27.35;22.04785;1012.871;;;;
2019/04/20 07:21:46;;;;;;;4.2;3.8;;;;;;;27.08;22.34375;1012.901;;;;
2019/04/20 07:24:05;;;;;;;4.8;4;;;;;;;27.07;22.43945;1012.83;;;;
2019/04/20 07:26:35;;;;;;;4.5;4.1;;;;;;;27.84;21.53418;1012.83;;;;
2019/04/20 07:29:05;;;;;;;4.5;4.1;;;;;;;29.35;19.77441;1012.834;;;;
2019/04/20 07:31:35;;;;;;;4.4;4;;;;;;;30.9;18.08789;1012.797;;;;
2019/04/20 07:34:09;;;;;;;5;4;;;;;;;30.33;18.52051;1012.844;;;;
2019/04/20 07:36:39;;;;;;;3.8;3.5;;;;;;;29.8;19.09863;1012.806;;;;
2019/04/20 07:39:08;;;;;;;4.2;3.8;;;;;;;28.65;20.29395;1012.759;;;;
2019/04/20 07:41:38;;;;;;;4;3.7;;;;;;;28.06;21.00781;1012.746;;;;
2019/04/20 07:44:10;;;;;;;5;4.3;;;;;;;27.82;21.3418;1012.719;;;;
2019/04/20 07:46:36;;;;;;;4.7;4;;;;;;;27.84;21.31934;1012.691;;;;
2019/04/20 07:49:04;;;;;;;4.4;4;;;;;;;30.53;18.49316;1012.818;;;;
2019/04/20 07:51:37;;;;;;;4.7;4.3;;;;;;;34.33;14.9668;1012.788;;;;
2019/04/20 07:54:02;;;;;;;4.6;4.2;;;;;;;36.22;13.26563;1012.739;;;;
2019/04/20 07:56:33;;;;;;;4.4;4;;;;;;;37.37;12.34863;1012.788;;;;
2019/04/20 07:59:05;;;;;;;4.4;4;;;;;;;38.21;11.71191;1012.793;;;;
2019/04/20 08:04:08;;;;;;;5;4;;;;;;;39.49;10.72754;1012.864;;;;
2019/04/20 08:06:35;;;;;;;4.4;4;;;;;;;39.94;10.39453;1012.783;;;;
2019/04/20 08:09:10;;;;;;;4.4;4;;;;;;;40.17;10.21582;1012.726;;;;
2019/04/20 08:11:38;;;;;;;4.6;4.2;;;;;;;40.49;9.953125;1012.784;;;;
2019/04/20 08:14:06;;;;;;;4.4;4;;;;;;;40.79;9.713867;1012.758;;;;
2019/04/20 08:16:38;;;;;;;4.4;4;;;;;;;41.05;9.59668;1012.841;;;;
2019/04/20 08:19:08;;;;;;;5.1;4.3;;;;;;;41.12;9.487305;1012.816;;;;
2019/04/20 08:21:39;;;;;;;4.6;4.2;;;;;;;41.44;9.272461;1012.859;;;;
2019/04/20 08:24:10;;;;;;;5.4;4.2;;;;;;;41.47;9.211914;1012.907;;;;
2019/04/20 08:26:41;;;;;;;4.4;4;;;;;;;41.72;9.081055;1012.814;;;;
2019/04/20 08:29:20;;;;;;;4.5;4.1;;;;;;;41.89;8.949219;1012.765;;;;
2019/04/20 08:34:14;;;;;;;4.4;4;;;;;;;42.36;8.650391;1012.86;;;;
2019/04/20 08:36:40;;;;;;;4.3;3.9;;;;;;;42.16;8.720703;1012.859;;;;
2019/04/20 08:39:11;;;;;;;4.4;4;;;;;;;42.65;8.458008;1012.884;;;;
2019/04/20 08:41:41;;;;;;;4.1;3.8;;;;;;;42.79;8.362305;1012.884;;;;
2019/04/20 08:44:12;;;;;;;4.5;4.1;;;;;;;42.5;8.517578;1012.806;;;;
2019/04/20 08:46:40;;;;;;;4.3;3.9;;;;;;;42.34;8.563477;1012.814;;;;
2019/04/20 08:49:09;;;;;;;4.5;4.1;;;;;;;42.05;8.754883;1012.792;;;;
2019/04/20 08:51:40;;;;;;;4.8;4.1;;;;;;;41.39;9.148438;1012.737;;;;
2019/04/20 08:54:15;;;;;;;4.4;4;;;;;;;39.97;9.978516;1012.71;;;;
2019/04/20 08:56:47;;;;;;;4.1;3.7;;;;;;;36.73;12.24609;1012.684;;;;
2019/04/20 08:59:22;;;;;;;4.9;4.3;;;;;;;34.08;14.42676;1012.663;;;;
2019/04/20 09:02:02;;;;;;;4.7;4.2;;;;;;;32.78;15.64063;1012.659;;;;
2019/04/20 09:04:36;;;;;;;4.7;4.2;;;;;;;31.87;16.58496;1012.571;;;;
2019/04/20 09:07:07;;;;;;;4.9;4.4;;;;;;;31.38;17.08398;1012.544;;;;
2019/04/20 09:09:35;;;;;;;4.6;4.2;;;;;;;31.03;17.47949;1012.495;;;;
2019/04/20 09:12:06;;;;;;;4.4;4;;;;;;;30.55;17.98926;1012.545;;;;
2019/04/20 09:14:50;;;;;;;4.7;4.3;;;;;;;30.22;18.38477;1012.524;;;;
2019/04/20 09:18:01;;;;;;;4.7;4.3;;;;;;;29.8;18.84668;1012.433;;;;
2019/04/20 09:20:14;;;;;;;4.7;4.3;;;;;;;29.6;19.07813;1012.482;;;;
2019/04/20 09:22:59;;;;;;;4.8;4.4;;;;;;;29.36;19.3916;1012.454;;;;
2019/04/20 09:25:21;;;;;;;4.4;4;;;;;;;29.06;19.7373;1012.411;;;;
2019/04/20 09:30:29;;;;;;;5;4.5;;;;;;;28.64;20.24512;1012.379;;;;
2019/04/20 09:32:55;;;;;;;4.7;4.3;;;;;;;28.58;20.35059;1012.365;;;;
2019/04/20 09:35:23;;;;;;;4.8;4.3;;;;;;;28.48;20.47754;1012.368;;;;
2019/04/20 09:38:09;;;;;;;5.4;4.5;;;;;;;28.31;20.68457;1012.313;;;;
2019/04/20 09:40:37;;;;;;;4.7;4.3;;;;;;;28.17;20.89258;1012.289;;;;
2019/04/20 09:43:12;;;;;;;5;4.6;;;;;;;27.98;21.11133;1012.279;;;;
2019/04/20 09:45:41;;;;;;;5.7;4.6;;;;;;;27.95;21.14551;1012.295;;;;
2019/04/20 09:47:58;;;;;;;5.1;4.6;;;;;;;27.82;21.31836;1012.226;;;;
2019/04/20 09:50:29;;;;;;;4.9;4.5;;;;;;;27.75;21.38672;1012.146;;;;
2019/04/20 09:53:01;;;;;;;4.9;4.5;;;;;;;27.65;21.48926;1012.171;;;;
2019/04/20 09:55:30;;;;;;;4.7;4.3;;;;;;;27.66;21.46582;1012.187;;;;
2019/04/20 09:58:01;;;;;;;5;4.5;;;;;;;27.52;21.60254;1012.168;;;;
2019/04/20 10:00:32;;;;;;;5.2;4.7;;;;;;;27.38;21.71582;1012.156;;;;
2019/04/20 10:03:04;;;;;;;5.1;4.6;;;;;;;27.3;21.86621;1012.101;;;;
2019/04/20 10:05:30;;;;;;;4.6;4.2;;;;;;;27.36;21.80957;1012.078;;;;
2019/04/20 10:08:01;;;;;;;5;4.4;;;;;;;27.28;21.85352;1012.008;;;;
2019/04/20 10:10:31;;;;;;;5.1;4.6;;;;;;;27.11;22.0957;1012.007;;;;
2019/04/20 10:13:03;;;;;;;5.8;4.4;;;;;;;27.04;22.11621;1011.99;;;;
2019/04/20 10:15:33;;;;;;;5.8;4.8;;;;;;;26.95;22.24219;1011.895;;;;
2019/04/20 10:18:04;;;;;;;5.1;4.7;;;;;;;26.93;22.22949;1011.913;;;;
2019/04/20 10:20:34;;;;;;;4.7;4.3;;;;;;;26.93;22.25293;1011.899;;;;
2019/04/20 10:23:07;;;;;;;4.9;4.4;;;;;;;26.81;22.46191;1011.911;;;;
2019/04/20 10:25:36;;;;;;;4.9;4.4;;;;;;;26.74;22.58887;1011.853;;;;
2019/04/20 10:28:10;;;;;;;4.9;4.4;;;;;;;26.65;22.75195;1011.807;;;;
2019/04/20 10:30:37;;;;;;;5.6;4.7;;;;;;;26.65;22.7041;1011.894;;;;
2019/04/20 10:33:08;;;;;;;4.8;4.3;;;;;;;26.61;22.70215;1011.829;;;;
2019/04/20 10:35:38;;;;;;;4.8;4.3;;;;;;;26.53;22.81641;1011.819;;;;
2019/04/20 10:38:16;;;;;;;5;4.5;;;;;;;26.49;22.87402;1011.785;;;;
2019/04/20 10:40:39;;;;;;;4.7;4.3;;;;;;;26.43;22.87109;1011.845;;;;
2019/04/20 10:43:16;;;;;;;4.8;4.3;;;;;;;26.43;22.76367;1011.715;;;;
2019/04/20 10:45:50;;;;;;;4.6;4.1;;;;;;;26.35;22.99805;1011.76;;;;
2019/04/20 10:48:22;;;;;;;4.6;4.2;;;;;;;26.35;22.87891;1011.787;;;;
2019/04/20 10:50:53;;;;;;;4.8;4.3;;;;;;;26.27;22.95801;1011.727;;;;
2019/04/20 10:53:26;;;;;;;4.7;4.3;;;;;;;26.22;23.05078;1011.696;;;;
2019/04/20 10:55:55;;;;;;;5.3;4.4;;;;;;;26.21;23.08594;1011.749;;;;
2019/04/20 10:58:25;;;;;;;4.9;4.5;;;;;;;26.16;23.13086;1011.695;;;;
2019/04/20 11:00:51;;;;;;;5.2;4.2;;;;;;;26.12;23.23633;1011.693;;;;
2019/04/20 11:03:21;;;;;;;4.8;4.4;;;;;;;26.11;23.23535;1011.701;;;;
2019/04/20 11:05:51;;;;;;;4.6;4.2;;;;;;;26.09;23.24609;1011.645;;;;
2019/04/20 11:08:25;;;;;;;5.4;4.6;;;;;;;26.08;23.26953;1011.579;;;;
2019/04/20 11:10:52;;;;;;;4.4;4;;;;;;;26.02;23.37305;1011.564;;;;
2019/04/20 11:13:23;;;;;;;5.9;4.6;;;;;;;25.98;23.43066;1011.599;;;;
2019/04/20 11:15:51;;;;;;;4.3;3.9;;;;;;;25.96;23.42969;1011.534;;;;
2019/04/20 11:18:23;;;;;;;5;4.5;;;;;;;25.99;23.41895;1011.537;;;;
2019/04/20 11:20:54;;;;;;;5.2;4.7;;;;;;;25.98;23.41895;1011.471;;;;
2019/04/20 11:23:33;;;;;;;5.2;4.7;;;;;;;25.96;23.46484;1011.457;;;;
2019/04/20 11:26:09;;;;;;;4.8;4.4;;;;;;;25.92;23.54688;1011.429;;;;
2019/04/20 11:28:42;;;;;;;5.9;4.5;;;;;;;25.9;23.60449;1011.377;;;;
2019/04/20 11:31:18;;;;;;;5.6;4.8;;;;;;;25.89;23.61719;1011.406;;;;
2019/04/20 11:33:45;;;;;;;5.3;4.8;;;;;;;25.88;23.65137;1011.276;;;;
2019/04/20 11:36:11;;;;;;;4.5;4.1;;;;;;;25.88;23.63965;1011.35;;;;
2019/04/20 11:38:42;;;;;;;4.4;4;;;;;;;25.85;23.68555;1011.347;;;;
2019/04/20 11:41:12;;;;;;;5.1;4.6;;;;;;;25.83;23.68457;1011.232;;;;
2019/04/20 11:43:53;;;;;;;5;4.5;;;;;;;25.81;23.69531;1011.231;;;;
2019/04/20 11:46:20;;;;;;;5.5;4.5;;;;;;;25.82;23.73145;1011.275;;;;
2019/04/20 11:48:56;;;;;;;5;4.5;;;;;;;25.83;23.70898;1011.254;;;;
2019/04/20 11:51:22;;;;;;;4.9;4.4;;;;;;;25.81;23.67188;1011.209;;;;
2019/04/20 11:53:48;;;;;;;5.3;4.6;;;;;;;25.79;23.74219;1011.253;;;;
2019/04/20 11:56:17;;;;;;;5.4;4.3;;;;;;;25.79;23.71777;1011.198;;;;
2019/04/20 11:58:42;;;;;;;5.5;4.7;;;;;;;25.76;23.74023;1011.177;;;;
2019/04/20 12:01:35;;;;;;;5.2;4.5;;;;;;;25.75;23.77539;1011.098;;;;
2019/04/20 12:03:48;;;;;;;5.3;4.6;;;;;;;25.76;23.7168;1011.04;;;;
2019/04/20 12:06:19;;;;;;;5;4.5;;;;;;;25.75;23.72754;1010.892;;;;
2019/04/20 12:08:52;;;;;;;4.8;4.4;;;;;;;25.72;23.73828;1010.915;;;;
2019/04/20 12:11:18;;;;;;;4.9;4.4;;;;;;;25.72;23.77344;1010.963;;;;
2019/04/20 12:13:46;;;;;;;4.9;4.4;;;;;;;25.72;23.72656;1010.878;;;;
2019/04/20 12:16:16;;;;;;;6;4.4;;;;;;;25.71;23.76172;1010.817;;;;
2019/04/20 12:18:47;;;;;;;4.9;4.5;;;;;;;25.69;23.70117;1010.857;;;;
2019/04/20 12:21:17;;;;;;;6;4.7;;;;;;;25.69;23.71289;1010.844;;;;
2019/04/20 12:23:49;;;;;;;5;4.5;;;;;;;25.67;23.73535;1010.738;;;;
2019/04/20 12:26:19;;;;;;;4.6;4.2;;;;;;;25.69;23.65332;1010.684;;;;
2019/04/20 12:28:49;;;;;;;5;4.5;;;;;;;25.62;23.74414;1010.667;;;;
2019/04/20 12:31:19;;;;;;;4.7;4.3;;;;;;;25.64;23.70996;1010.709;;;;
2019/04/20 12:33:50;;;;;;;5.9;4.5;;;;;;;25.62;23.70898;1010.689;;;;
2019/04/20 12:36:21;;;;;;;5.1;4.6;;;;;;;25.63;23.7207;1010.693;;;;
2019/04/20 12:38:51;;;;;;;5.4;4.5;;;;;;;25.63;23.65039;1010.601;;;;
2019/04/20 12:41:23;;;;;;;4.8;4.3;;;;;;;25.62;23.64941;1010.643;;;;
2019/04/20 12:43:54;;;;;;;4.7;4.2;;;;;;;25.63;23.62598;1010.614;;;;
2019/04/20 12:46:24;;;;;;;4.6;3.9;;;;;;;25.63;23.50684;1010.606;;;;
2019/04/20 12:48:55;;;;;;;5;4.4;;;;;;;25.62;23.4834;1010.625;;;;
2019/04/20 12:51:25;;;;;;;4.5;4.1;;;;;;;25.62;23.41211;1010.606;;;;
2019/04/20 12:53:59;;;;;;;4.4;4;;;;;;;25.61;23.45898;1010.494;;;;
2019/04/20 12:56:26;;;;;;;4.6;4.2;;;;;;;25.59;23.45801;1010.54;;;;
2019/04/20 12:59:11;;;;;;;5.3;4;;;;;;;25.59;23.35059;1010.504;;;;
2019/04/20 13:01:44;;;;;;;4.4;4;;;;;;;25.58;23.31445;1010.433;;;;
2019/04/20 13:04:14;;;;;;;4.7;4.2;;;;;;;25.56;23.21875;1010.481;;;;
2019/04/20 13:06:42;;;;;;;4.7;4;;;;;;;25.57;23.24316;1010.434;;;;
2019/04/20 13:09:17;;;;;;;4.5;4;;;;;;;25.56;23.18262;1010.345;;;;
2019/04/20 13:11:56;;;;;;;4.4;3.8;;;;;;;25.54;23.09863;1010.352;;;;
2019/04/20 13:14:29;;;;;;;4.9;4.1;;;;;;;25.54;23.14648;1010.299;;;;
2019/04/20 13:16:53;;;;;;;3.9;3.5;;;;;;;25.51;23.13281;1010.194;;;;
2019/04/20 13:19:22;;;;;;;4.4;4;;;;;;;25.51;23.0498;1010.14;;;;
2019/04/20 13:21:54;;;;;;;5.1;4.2;;;;;;;25.5;23.12109;1010.215;;;;
2019/04/20 13:24:26;;;;;;;5;4.1;;;;;;;25.51;23.08594;1010.158;;;;
2019/04/20 13:26:54;;;;;;;4.1;3.7;;;;;;;25.5;23.06152;1010.137;;;;
2019/04/20 13:29:26;;;;;;;5.4;3.9;;;;;;;25.5;23.01367;1010.105;;;;
2019/04/20 13:31:57;;;;;;;4.2;3.8;;;;;;;25.49;22.96582;1010.002;;;;
2019/04/20 13:34:26;;;;;;;3.8;3.5;;;;;;;25.48;22.98926;1010.008;;;;
2019/04/20 13:36:57;;;;;;;3.9;3.6;;;;;;;25.48;23.0127;1009.994;;;;
2019/04/20 13:39:28;;;;;;;4.9;3.8;;;;;;;25.47;23;1009.997;;;;
2019/04/20 13:41:58;;;;;;;3.8;3.5;;;;;;;25.48;22.94141;1009.958;;;;
2019/04/20 13:44:29;;;;;;;4.2;3.8;;;;;;;25.48;22.91797;1009.935;;;;
2019/04/20 13:46:59;;;;;;;4.2;3.8;;;;;;;25.48;22.96582;1009.87;;;;
2019/04/20 13:49:30;;;;;;;4.6;3.5;;;;;;;25.48;22.92969;1009.857;;;;
2019/04/20 13:52:00;;;;;;;4.7;3.7;;;;;;;25.47;22.97656;1009.836;;;;
2019/04/20 13:54:32;;;;;;;4.3;3.9;;;;;;;25.46;22.95215;1009.907;;;;
2019/04/20 13:57:00;;;;;;;3.8;3.4;;;;;;;25.47;22.97656;1009.897;;;;
2019/04/20 13:59:35;;;;;;;3.9;3.5;;;;;;;25.45;22.89258;1009.855;;;;
2019/04/20 14:05:07;;;;;;;3.5;3.2;;;;;;;25.46;22.8457;1009.852;;;;
2019/04/20 14:06:51;;;;;;;3.8;3.5;;;;;;;25.44;22.86816;1009.776;;;;
2019/04/20 14:09:22;;;;;;;3.7;3.4;;;;;;;25.44;22.8916;1009.725;;;;
2019/04/20 14:11:51;;;;;;;3.6;3.3;;;;;;;25.45;22.86914;1009.703;;;;
2019/04/20 14:14:25;;;;;;;4;3.6;;;;;;;25.44;22.87988;1009.636;;;;
2019/04/20 14:16:56;;;;;;;3.9;3.5;;;;;;;25.45;22.9043;1009.653;;;;
2019/04/20 14:19:26;;;;;;;3.8;3.4;;;;;;;25.44;22.93945;1009.587;;;;
2019/04/20 14:21:57;;;;;;;3.6;3.3;;;;;;;25.41;23.05664;1009.588;;;;
2019/04/20 14:24:28;;;;;;;3.5;3.2;;;;;;;25.41;23.02051;1009.497;;;;
2019/04/20 14:26:59;;;;;;;3.5;3.2;;;;;;;25.42;22.92676;1009.513;;;;
2019/04/20 14:29:28;;;;;;;3.5;3.2;;;;;;;25.4;22.99707;1009.44;;;;
2019/04/20 14:32:00;;;;;;;3.9;3.5;;;;;;;25.41;22.83105;1009.433;;;;
2019/04/20 14:34:31;;;;;;;4.1;3.3;;;;;;;25.41;23.00879;1009.456;;;;
2019/04/20 14:36:59;;;;;;;4.1;3.6;;;;;;;25.39;22.91309;1009.336;;;;
2019/04/20 14:39:28;;;;;;;3.9;3;;;;;;;25.38;22.91309;1009.31;;;;
2019/04/20 14:42:02;;;;;;;3.5;3.2;;;;;;;25.37;22.87695;1009.335;;;;
2019/04/20 14:44:29;;;;;;;3.6;3.3;;;;;;;25.38;22.97168;1009.288;;;;
2019/04/20 14:46:59;;;;;;;3.5;3.2;;;;;;;25.37;22.95996;1009.335;;;;
2019/04/20 14:49:31;;;;;;;3.5;3.2;;;;;;;25.35;22.76855;1009.326;;;;
2019/04/20 14:51:59;;;;;;;3.6;3.3;;;;;;;25.37;22.73438;1009.299;;;;
2019/04/20 14:54:35;;;;;;;3.8;3.2;;;;;;;25.36;22.8877;1009.204;;;;
2019/04/20 14:57:05;;;;;;;3.6;3.3;;;;;;;25.37;22.80469;1009.13;;;;
2019/04/20 14:59:38;;;;;;;4.5;3.4;;;;;;;25.36;22.74512;1009.251;;;;
2019/04/20 15:02:10;;;;;;;3.4;3.1;;;;;;;25.34;22.93457;1009.19;;;;
2019/04/20 15:04:37;;;;;;;3.8;3.5;;;;;;;25.34;22.91016;1009.154;;;;
2019/04/20 15:07:06;;;;;;;3.3;3;;;;;;;25.34;22.82715;1009.094;;;;